Time;durP1;ratioP1;P1;durP2;ratioP2;P2;SDS_P1;SDS_P2;PMS_P1;PMS_P2;Temp;Humidity;BMP_temperature;BMP_pressure;BME280_temperature;BME280_humidity;BME280_pressure;Samples;Min_cycle;Max_cycle;Signal;HPM_P1;HPM_P2
2020/12/16 00:01:04;;;;;;;10.00;5.03;;;;;;;9.31;100.00;98078.19;5033991;28;20207;-78
2020/12/16 00:03:30;;;;;;;8.83;5.30;;;;;;;9.15;100.00;98076.63;5030018;28;20651;-77
2020/12/16 00:05:57;;;;;;;11.17;5.70;;;;;;;9.34;100.00;98072.50;5034105;28;20206;-77
2020/12/16 00:08:24;;;;;;;9.83;5.83;;;;;;;9.21;100.00;98070.53;5033046;28;20215;-78
2020/12/16 00:10:52;;;;;;;9.00;5.50;;;;;;;9.22;100.00;98074.00;5037500;28;20212;-77
2020/12/16 00:13:19;;;;;;;10.67;5.87;;;;;;;9.28;100.00;98065.28;5033766;28;20209;-77
2020/12/16 00:15:46;;;;;;;7.93;5.17;;;;;;;9.22;100.00;98066.84;5033606;28;20678;-77
2020/12/16 00:18:13;;;;;;;10.23;5.70;;;;;;;9.22;100.00;98061.50;5032333;28;20227;-77
2020/12/16 00:20:40;;;;;;;10.13;5.60;;;;;;;9.16;100.00;98064.94;5033901;28;20230;-77
2020/12/16 00:23:07;;;;;;;9.83;5.83;;;;;;;9.06;100.00;98063.59;5033640;28;20217;-76
2020/12/16 00:25:34;;;;;;;11.93;6.50;;;;;;;9.09;100.00;98064.03;5033812;28;20191;-77
2020/12/16 00:28:01;;;;;;;11.53;6.27;;;;;;;9.10;100.00;98071.03;5032605;28;20222;-78
2020/12/16 00:30:28;;;;;;;12.30;6.30;;;;;;;9.12;100.00;98063.69;5029560;28;20222;-78
2020/12/16 00:32:55;;;;;;;11.07;6.27;;;;;;;9.12;100.00;98065.50;5030623;28;20699;-77
2020/12/16 00:35:22;;;;;;;9.20;6.17;;;;;;;9.06;100.00;98066.25;5033583;28;20675;-77
2020/12/16 00:37:48;;;;;;;11.00;6.37;;;;;;;9.07;100.00;98058.09;5032660;28;20230;-77
2020/12/16 00:40:17;;;;;;;13.10;6.43;;;;;;;9.12;100.00;98062.84;5032638;28;20658;-77
2020/12/16 00:42:47;;;;;;;9.53;5.93;;;;;;;9.10;100.00;98063.06;5031645;28;20588;-76
2020/12/16 00:45:15;;;;;;;9.80;6.13;;;;;;;9.02;100.00;98063.16;5033859;28;20210;-77
2020/12/16 00:47:42;;;;;;;11.20;6.50;;;;;;;8.93;100.00;98064.28;5031843;28;20230;-78
2020/12/16 00:50:11;;;;;;;13.70;7.40;;;;;;;8.84;100.00;98072.59;5033595;28;20210;-78
2020/12/16 00:52:38;;;;;;;14.47;7.30;;;;;;;8.87;100.00;98083.69;5032864;28;20218;-77
2020/12/16 00:55:06;;;;;;;16.67;7.07;;;;;;;8.84;100.00;98081.38;5033602;28;20256;-77
2020/12/16 00:57:33;;;;;;;13.20;6.87;;;;;;;8.80;100.00;98074.81;5031113;28;20218;-78
2020/12/16 01:00:01;;;;;;;13.53;6.80;;;;;;;8.86;100.00;98076.72;5033096;28;20748;-79
2020/12/16 01:02:29;;;;;;;13.63;7.13;;;;;;;8.83;100.00;98081.59;5031592;28;20198;-78
2020/12/16 01:04:55;;;;;;;14.23;7.37;;;;;;;8.85;100.00;98083.06;5033649;28;20217;-78
2020/12/16 01:07:22;;;;;;;13.83;7.40;;;;;;;8.86;100.00;98086.53;5031957;28;20594;-77
2020/12/16 01:09:49;;;;;;;12.80;7.13;;;;;;;8.87;100.00;98102.31;5033176;28;20202;-77
2020/12/16 01:12:16;;;;;;;12.27;6.73;;;;;;;8.87;100.00;98104.97;5033058;28;20755;-78
2020/12/16 01:14:43;;;;;;;11.33;7.67;;;;;;;8.95;100.00;98112.84;5033911;28;20195;-78
2020/12/16 01:17:11;;;;;;;11.73;7.03;;;;;;;8.98;100.00;98116.97;5027567;28;20724;-76
2020/12/16 01:19:39;;;;;;;12.67;7.67;;;;;;;9.08;100.00;98110.31;5025348;28;20219;-76
2020/12/16 01:22:06;;;;;;;13.83;7.70;;;;;;;9.07;100.00;98106.00;5033174;28;20233;-78
2020/12/16 01:24:32;;;;;;;12.60;7.50;;;;;;;9.05;100.00;98108.06;5033134;28;20564;-75
2020/12/16 01:26:59;;;;;;;16.17;7.43;;;;;;;9.14;100.00;98108.75;5031630;28;20232;-76
2020/12/16 01:29:26;;;;;;;13.57;7.37;;;;;;;9.21;100.00;98107.81;5032723;28;20841;-76
2020/12/16 01:31:53;;;;;;;12.13;7.73;;;;;;;9.28;100.00;98108.69;5032574;28;20203;-76
2020/12/16 01:34:20;;;;;;;17.43;9.07;;;;;;;9.33;100.00;98111.59;5032145;28;20206;-76
2020/12/16 01:36:48;;;;;;;14.40;8.30;;;;;;;9.32;100.00;98117.94;5032307;28;20223;-77
2020/12/16 01:39:16;;;;;;;13.60;8.60;;;;;;;9.27;100.00;98116.84;5032822;28;20235;-76
2020/12/16 01:41:43;;;;;;;16.83;8.50;;;;;;;9.37;100.00;98120.84;5032145;28;20697;-76
2020/12/16 01:44:12;;;;;;;19.57;9.57;;;;;;;9.46;100.00;98122.38;5032431;28;20203;-76
2020/12/16 01:46:45;;;;;;;15.80;9.47;;;;;;;9.55;100.00;98117.75;5030630;28;20196;-76
2020/12/16 01:49:12;;;;;;;15.90;9.30;;;;;;;9.51;100.00;98106.66;5032316;28;20217;-76
2020/12/16 01:51:39;;;;;;;17.97;10.40;;;;;;;9.60;100.00;98110.81;5032146;28;20299;-77
2020/12/16 01:54:08;;;;;;;24.67;10.60;;;;;;;9.65;100.00;98105.72;5032330;28;20254;-76
2020/12/16 01:56:38;;;;;;;19.43;9.87;;;;;;;9.71;100.00;98109.47;5031274;28;20196;-79
2020/12/16 01:59:06;;;;;;;18.57;9.63;;;;;;;9.73;100.00;98107.44;5032110;28;20223;-76
2020/12/16 02:01:34;;;;;;;25.10;11.67;;;;;;;9.71;100.00;98104.97;5031863;28;20206;-76
2020/12/16 02:04:02;;;;;;;18.13;10.97;;;;;;;9.63;100.00;98096.28;5031792;28;20219;-76
2020/12/16 02:06:32;;;;;;;19.07;9.90;;;;;;;9.65;100.00;98108.38;5031531;28;20211;-80
2020/12/16 02:09:03;;;;;;;17.43;8.67;;;;;;;9.65;100.00;98104.91;5031256;28;20204;-76
2020/12/16 02:11:33;;;;;;;15.07;8.53;;;;;;;9.65;100.00;98104.91;5031519;28;20195;-76
2020/12/16 02:14:00;;;;;;;13.70;8.73;;;;;;;9.44;100.00;98113.75;5031198;28;20216;-77
2020/12/16 02:16:29;;;;;;;16.30;8.90;;;;;;;9.65;100.00;98110.25;5024809;28;20202;-77
2020/12/16 02:18:56;;;;;;;17.23;8.50;;;;;;;9.70;100.00;98105.97;5030949;28;20276;-78
2020/12/16 02:21:23;;;;;;;16.23;9.40;;;;;;;9.75;100.00;98105.41;5031905;28;20195;-76
2020/12/16 02:23:51;;;;;;;19.00;9.10;;;;;;;9.77;100.00;98098.03;5031601;28;20203;-76
2020/12/16 02:26:19;;;;;;;13.73;8.23;;;;;;;9.73;100.00;98100.28;5031776;28;20198;-75
2020/12/16 02:28:45;;;;;;;15.67;8.83;;;;;;;9.69;100.00;98093.66;5030394;28;20688;-75
2020/12/16 02:31:12;;;;;;;17.60;9.23;;;;;;;9.75;100.00;98105.41;5031419;28;20207;-77
2020/12/16 02:33:39;;;;;;;15.23;9.07;;;;;;;9.74;100.00;98107.25;5031614;28;20199;-75
2020/12/16 02:36:06;;;;;;;14.17;8.57;;;;;;;9.77;100.00;98106.88;5031652;28;20782;-76
2020/12/16 02:38:33;;;;;;;17.73;9.03;;;;;;;9.68;100.00;98104.50;5030096;28;20234;-75
2020/12/16 02:40:59;;;;;;;15.23;8.53;;;;;;;9.51;100.00;98108.47;5030916;28;20204;-75
2020/12/16 02:43:27;;;;;;;15.93;9.30;;;;;;;9.61;100.00;98114.31;5031732;28;20205;-76
2020/12/16 02:45:54;;;;;;;17.77;9.47;;;;;;;9.57;100.00;98111.22;5031920;28;20208;-75
2020/12/16 02:48:21;;;;;;;18.00;9.93;;;;;;;9.77;100.00;98114.88;5025822;28;20280;-76
2020/12/16 02:50:47;;;;;;;16.97;10.13;;;;;;;9.83;100.00;98111.41;5029884;28;20581;-76
2020/12/16 02:53:14;;;;;;;15.67;9.33;;;;;;;9.77;100.00;98117.53;5030942;28;20206;-75
2020/12/16 02:55:41;;;;;;;21.57;9.03;;;;;;;9.84;100.00;98110.41;5031293;28;20205;-77
2020/12/16 02:58:08;;;;;;;15.30;8.93;;;;;;;9.78;100.00;98107.69;5029179;28;20321;-76
2020/12/16 03:00:35;;;;;;;14.63;8.77;;;;;;;9.85;100.00;98112.03;5031256;28;20290;-75
2020/12/16 03:03:02;;;;;;;15.37;8.37;;;;;;;9.89;100.00;98105.31;5031016;28;20204;-75
2020/12/16 03:05:29;;;;;;;15.67;8.33;;;;;;;9.93;100.00;98108.41;5033083;28;20198;-75
2020/12/16 03:07:56;;;;;;;16.53;8.93;;;;;;;9.85;100.00;98100.56;5034054;28;20313;-76
2020/12/16 03:10:23;;;;;;;14.47;8.60;;;;;;;9.89;100.00;98107.16;5034891;28;20301;-75
2020/12/16 03:12:49;;;;;;;13.40;8.23;;;;;;;9.93;100.00;98109.25;5034631;28;20259;-75
2020/12/16 03:15:16;;;;;;;15.53;8.30;;;;;;;9.92;100.00;98112.09;5034570;28;20204;-76
2020/12/16 03:17:44;;;;;;;14.60;8.13;;;;;;;9.92;100.00;98118.25;5034115;28;20240;-75
2020/12/16 03:20:11;;;;;;;16.63;9.37;;;;;;;9.87;100.00;98115.34;5034527;28;20287;-75
2020/12/16 03:22:37;;;;;;;16.23;8.90;;;;;;;9.96;100.00;98119.53;5037496;28;20289;-76
2020/12/16 03:25:04;;;;;;;14.37;8.17;;;;;;;9.97;100.00;98121.16;5038504;28;20202;-75
2020/12/16 03:27:31;;;;;;;14.17;7.73;;;;;;;9.90;100.00;98114.94;5036825;28;20561;-75
2020/12/16 03:29:58;;;;;;;14.57;8.70;;;;;;;9.96;100.00;98105.38;5036183;28;20210;-76
2020/12/16 03:32:25;;;;;;;14.80;8.57;;;;;;;9.99;100.00;98113.78;5034284;28;20199;-75
2020/12/16 03:34:52;;;;;;;15.97;8.03;;;;;;;9.83;100.00;98107.91;5034878;28;20199;-75
2020/12/16 03:37:19;;;;;;;14.80;7.63;;;;;;;9.85;100.00;98105.91;5033662;28;20567;-76
2020/12/16 03:39:46;;;;;;;15.10;8.03;;;;;;;9.81;100.00;98108.13;5027048;28;20231;-76
2020/12/16 03:42:13;;;;;;;15.37;9.03;;;;;;;9.79;100.00;98112.00;5035440;28;20252;-75
2020/12/16 03:44:39;;;;;;;14.87;8.40;;;;;;;9.78;100.00;98115.66;5040405;28;20254;-75
2020/12/16 03:47:06;;;;;;;17.93;9.07;;;;;;;9.69;100.00;98114.19;5032956;28;20231;-79
2020/12/16 03:49:33;;;;;;;14.10;8.60;;;;;;;9.82;100.00;98115.09;5034392;28;20578;-75
2020/12/16 03:52:01;;;;;;;15.30;8.60;;;;;;;9.85;100.00;98108.56;5034077;28;20208;-75
2020/12/16 03:54:28;;;;;;;16.67;9.10;;;;;;;9.91;100.00;98110.44;5034653;28;20206;-75
2020/12/16 03:56:56;;;;;;;14.47;8.70;;;;;;;9.75;100.00;98111.53;5033294;28;20733;-75
2020/12/16 03:59:23;;;;;;;16.47;9.00;;;;;;;9.87;100.00;98110.03;5027610;28;20225;-76
2020/12/16 04:01:52;;;;;;;13.00;7.57;;;;;;;9.90;100.00;98116.81;5033480;28;20206;-75
2020/12/16 04:04:19;;;;;;;16.03;8.80;;;;;;;9.76;100.00;98121.22;5034148;28;20198;-76
2020/12/16 04:06:45;;;;;;;14.67;8.37;;;;;;;9.86;100.00;98111.03;5033065;28;20226;-76
2020/12/16 04:09:13;;;;;;;15.17;8.10;;;;;;;9.74;100.00;98109.09;5034456;28;21007;-75
2020/12/16 04:11:40;;;;;;;15.27;8.57;;;;;;;9.85;100.00;98111.22;5034656;28;20282;-76
2020/12/16 04:14:07;;;;;;;13.83;8.53;;;;;;;9.81;100.00;98105.47;5034728;28;20203;-75
2020/12/16 04:16:33;;;;;;;15.40;8.77;;;;;;;9.80;100.00;98114.47;5033931;28;20644;-77
2020/12/16 04:19:00;;;;;;;13.70;8.63;;;;;;;9.95;100.00;98107.19;5033753;28;20235;-75
2020/12/16 04:21:27;;;;;;;14.40;8.20;;;;;;;9.96;100.00;98106.19;5037442;28;20215;-76
2020/12/16 04:23:54;;;;;;;16.67;9.00;;;;;;;9.86;100.00;98103.06;5034166;28;20685;-75
2020/12/16 04:26:28;;;;;;;15.47;9.00;;;;;;;9.71;100.00;98107.66;5033598;28;20207;-75
2020/12/16 04:28:54;;;;;;;16.20;8.80;;;;;;;9.63;100.00;98115.75;5032490;28;20202;-75
2020/12/16 04:31:21;;;;;;;14.97;8.83;;;;;;;9.55;100.00;98109.75;5033296;28;20710;-78
2020/12/16 04:33:48;;;;;;;15.17;8.90;;;;;;;9.51;100.00;98105.81;5033981;28;20207;-75
2020/12/16 04:36:15;;;;;;;13.83;7.70;;;;;;;9.42;100.00;98113.13;5033365;28;20207;-75
2020/12/16 04:38:42;;;;;;;13.60;7.83;;;;;;;9.34;100.00;98117.75;5033033;28;20248;-77
2020/12/16 04:41:08;;;;;;;13.53;7.73;;;;;;;9.23;100.00;98121.75;5033586;28;20204;-76
2020/12/16 04:43:41;;;;;;;14.23;7.80;;;;;;;9.13;100.00;98115.09;5033027;28;20247;-76
2020/12/16 04:46:09;;;;;;;15.83;8.87;;;;;;;9.02;100.00;98124.38;5033327;28;20199;-77
2020/12/16 04:48:35;;;;;;;16.17;8.33;;;;;;;8.91;100.00;98138.19;5031713;28;20233;-76
2020/12/16 04:51:03;;;;;;;11.97;7.17;;;;;;;8.85;100.00;98130.13;5032965;28;20210;-76
2020/12/16 04:53:30;;;;;;;13.67;7.93;;;;;;;8.82;100.00;98138.47;5033357;28;20552;-77
2020/12/16 04:55:59;;;;;;;14.90;8.47;;;;;;;8.75;100.00;98129.59;5033408;28;20618;-76
2020/12/16 04:58:25;;;;;;;15.67;8.27;;;;;;;8.73;100.00;98132.44;5032193;28;20242;-76
2020/12/16 05:00:53;;;;;;;14.53;8.30;;;;;;;8.67;100.00;98141.16;5032480;28;20247;-77
2020/12/16 05:03:20;;;;;;;14.43;7.77;;;;;;;8.66;100.00;98134.19;5033075;28;21870;-75
2020/12/16 05:05:47;;;;;;;12.43;8.27;;;;;;;8.61;100.00;98141.06;5032899;28;20212;-76
2020/12/16 05:08:15;;;;;;;15.70;7.67;;;;;;;8.51;100.00;98129.88;5032865;28;20218;-76
2020/12/16 05:10:43;;;;;;;16.03;8.10;;;;;;;8.61;100.00;98130.44;5031766;28;20201;-76
2020/12/16 05:13:11;;;;;;;15.07;7.80;;;;;;;8.56;100.00;98135.47;5032251;28;20210;-76
2020/12/16 05:15:39;;;;;;;12.37;7.27;;;;;;;8.46;100.00;98137.59;5034077;28;20211;-76
2020/12/16 05:18:09;;;;;;;12.03;7.23;;;;;;;8.45;100.00;98144.78;5032469;28;20595;-77
2020/12/16 05:20:37;;;;;;;14.73;7.73;;;;;;;8.43;100.00;98141.44;5032731;28;20203;-77
2020/12/16 05:23:06;;;;;;;15.90;7.83;;;;;;;8.43;100.00;98144.09;5034535;28;20276;-76
2020/12/16 05:25:33;;;;;;;16.07;8.17;;;;;;;8.50;100.00;98145.03;5034147;28;21119;-77
2020/12/16 05:28:00;;;;;;;14.83;8.50;;;;;;;8.41;100.00;98148.81;5031333;28;20227;-79
2020/12/16 05:30:26;;;;;;;15.57;8.17;;;;;;;8.46;100.00;98146.41;5033550;28;20209;-81
2020/12/16 05:32:54;;;;;;;13.50;7.73;;;;;;;8.49;100.00;98146.06;5031981;28;20296;-75
2020/12/16 05:35:24;;;;;;;15.37;8.10;;;;;;;8.47;100.00;98137.41;5032204;28;20671;-76
2020/12/16 05:37:51;;;;;;;15.53;8.53;;;;;;;8.43;100.00;98144.09;5030807;28;20299;-75
2020/12/16 05:40:21;;;;;;;13.60;7.97;;;;;;;8.38;100.00;98158.97;5031682;28;20214;-75
2020/12/16 05:42:48;;;;;;;18.53;9.13;;;;;;;8.42;100.00;98157.63;5037643;28;20241;-76
2020/12/16 05:45:17;;;;;;;16.23;9.50;;;;;;;8.48;100.00;98154.22;5032293;28;20210;-75
2020/12/16 05:47:58;;;;;;;18.10;8.77;;;;;;;8.51;100.00;98159.16;5033333;28;20287;-75
2020/12/16 05:50:29;;;;;;;15.93;9.40;;;;;;;8.57;100.00;98166.41;5032370;28;20221;-76
2020/12/16 05:53:18;;;;;;;16.23;9.27;;;;;;;8.67;100.00;98162.44;5031057;28;20191;-78
2020/12/16 05:55:50;;;;;;;18.53;10.03;;;;;;;8.74;100.00;98155.38;5032319;28;20296;-77
2020/12/16 05:58:18;;;;;;;18.83;9.27;;;;;;;8.83;100.00;98164.91;5035827;28;20233;-77
2020/12/16 06:00:50;;;;;;;17.10;9.17;;;;;;;8.82;100.00;98165.91;5033277;28;20220;-77
2020/12/16 06:03:31;;;;;;;17.80;9.23;;;;;;;8.87;100.00;98179.50;5034590;28;20217;-78
2020/12/16 06:06:00;;;;;;;16.23;9.87;;;;;;;8.82;100.00;98173.91;5033493;28;20853;-77
2020/12/16 06:08:30;;;;;;;18.87;9.73;;;;;;;8.89;100.00;98177.44;5030216;28;20226;-77
2020/12/16 06:10:57;;;;;;;17.77;9.40;;;;;;;8.93;100.00;98178.75;5031559;28;20210;-77
2020/12/16 06:13:24;;;;;;;15.00;8.90;;;;;;;9.00;100.00;98182.31;5031098;28;20221;-77
2020/12/16 06:15:53;;;;;;;15.77;9.10;;;;;;;9.03;100.00;98187.25;5026757;28;20202;-77
2020/12/16 06:18:22;;;;;;;18.23;10.03;;;;;;;8.95;100.00;98187.38;5030535;28;20230;-77
2020/12/16 06:20:49;;;;;;;15.40;9.07;;;;;;;8.88;100.00;98189.13;5031795;28;20210;-77
2020/12/16 06:23:23;;;;;;;15.70;8.73;;;;;;;8.92;100.00;98190.41;5029780;28;20225;-77
2020/12/16 06:25:52;;;;;;;15.07;9.13;;;;;;;8.88;100.00;98193.63;5026893;28;20678;-76
2020/12/16 06:28:19;;;;;;;17.10;9.63;;;;;;;8.81;100.00;98190.88;5030078;28;20236;-78
2020/12/16 06:31:06;;;;;;;14.63;8.50;;;;;;;8.63;100.00;98200.25;5031660;28;20561;-77
2020/12/16 06:33:37;;;;;;;17.87;9.27;;;;;;;8.45;100.00;98200.63;5028161;28;20202;-76
2020/12/16 06:36:06;;;;;;;18.70;9.47;;;;;;;8.37;100.00;98210.53;5033143;28;20293;-79
2020/12/16 06:38:44;;;;;;;18.03;9.13;;;;;;;8.35;100.00;98210.69;5034125;28;20233;-75
2020/12/16 06:41:17;;;;;;;17.73;9.87;;;;;;;8.55;100.00;98210.97;5038029;28;20221;-78
2020/12/16 06:43:45;;;;;;;19.73;10.23;;;;;;;8.55;100.00;98217.13;5036837;28;20713;-77
2020/12/16 06:46:41;;;;;;;16.23;8.70;;;;;;;8.84;100.00;98203.78;5035581;28;20198;-77
2020/12/16 06:49:10;;;;;;;21.50;9.37;;;;;;;8.70;100.00;98209.13;5035608;28;20730;-75
2020/12/16 06:51:44;;;;;;;19.43;9.70;;;;;;;8.92;100.00;98205.53;5033169;28;20643;-81
2020/12/16 06:54:13;;;;;;;16.93;9.53;;;;;;;8.93;100.00;98207.22;5038418;28;20201;-77
2020/12/16 06:56:40;;;;;;;14.90;8.80;;;;;;;8.62;100.00;98210.06;5036625;28;20225;-77
2020/12/16 06:59:07;;;;;;;17.57;8.63;;;;;;;8.52;100.00;98216.69;5034656;28;20221;-82
2020/12/16 07:01:34;;;;;;;18.03;9.07;;;;;;;8.35;100.00;98218.66;5036932;28;20233;-78
2020/12/16 07:04:01;;;;;;;16.93;8.87;;;;;;;8.29;100.00;98215.91;5035309;28;20210;-75
2020/12/16 07:06:39;;;;;;;18.83;9.37;;;;;;;8.54;100.00;98211.97;5036311;28;20301;-76
2020/12/16 07:09:17;;;;;;;21.40;10.00;;;;;;;8.60;100.00;98211.25;5033541;28;20206;-75
2020/12/16 07:11:45;;;;;;;16.13;8.23;;;;;;;8.72;100.00;98212.47;5033456;28;20570;-76
2020/12/16 07:14:13;;;;;;;15.60;8.50;;;;;;;8.89;100.00;98217.38;5034108;28;20272;-75
2020/12/16 07:16:40;;;;;;;15.73;8.40;;;;;;;8.83;100.00;98218.13;5029019;28;20217;-77
2020/12/16 07:19:07;;;;;;;18.10;9.27;;;;;;;8.61;100.00;98213.72;5035562;28;20218;-75
2020/12/16 07:21:35;;;;;;;15.77;8.87;;;;;;;8.74;100.00;98224.56;5035207;28;20199;-74
2020/12/16 07:24:13;;;;;;;19.67;10.77;;;;;;;8.48;100.00;98234.81;5030930;28;20674;-74
2020/12/16 07:26:43;;;;;;;17.43;8.43;;;;;;;8.50;100.00;98232.81;5034988;28;20190;-74
2020/12/16 07:29:36;;;;;;;16.20;8.97;;;;;;;8.21;100.00;98234.59;5043722;28;20198;-79
2020/12/16 07:32:07;;;;;;;15.03;8.87;;;;;;;8.72;100.00;98237.22;5014266;28;20210;-78
2020/12/16 07:34:43;;;;;;;16.67;8.17;;;;;;;8.86;100.00;98246.19;5041039;28;20282;-75
2020/12/16 07:37:10;;;;;;;17.07;8.23;;;;;;;8.88;100.00;98239.69;5038956;28;20717;-76
2020/12/16 07:39:45;;;;;;;14.03;8.20;;;;;;;8.92;100.00;98246.28;5034288;28;20767;-76
2020/12/16 07:42:22;;;;;;;13.73;8.33;;;;;;;8.98;100.00;98250.88;5029183;28;20194;-77
2020/12/16 07:44:49;;;;;;;15.83;8.10;;;;;;;8.51;100.00;98236.28;5039040;28;20205;-76
2020/12/16 07:47:17;;;;;;;13.43;7.97;;;;;;;8.39;100.00;98251.03;5033744;28;20244;-75
2020/12/16 07:49:43;;;;;;;14.43;8.13;;;;;;;8.73;100.00;98262.81;5032410;28;20214;-80
2020/12/16 07:52:10;;;;;;;14.93;8.10;;;;;;;8.75;100.00;98262.63;5033611;28;20268;-75
2020/12/16 07:54:37;;;;;;;14.03;7.87;;;;;;;8.72;100.00;98266.47;5034765;28;20541;-74
2020/12/16 07:57:05;;;;;;;15.67;8.30;;;;;;;8.76;100.00;98256.28;5034256;28;20710;-76
2020/12/16 07:59:34;;;;;;;12.37;7.83;;;;;;;8.83;100.00;98254.56;5028238;28;20276;-76
2020/12/16 08:02:12;;;;;;;16.23;7.30;;;;;;;8.78;100.00;98262.28;5033438;28;20213;-75
2020/12/16 08:04:40;;;;;;;13.57;7.53;;;;;;;8.44;100.00;98260.13;5038013;28;20577;-74
2020/12/16 08:07:14;;;;;;;13.50;7.63;;;;;;;8.76;100.00;98264.28;5035205;28;20260;-74
2020/12/16 08:09:54;;;;;;;14.70;7.97;;;;;;;8.55;100.00;98262.34;5033857;28;20182;-75
2020/12/16 08:12:21;;;;;;;11.73;7.60;;;;;;;8.46;100.00;98257.28;5035836;28;20202;-75
2020/12/16 08:14:49;;;;;;;12.37;7.13;;;;;;;8.77;100.00;98266.75;5031436;28;20225;-75
2020/12/16 08:17:16;;;;;;;15.80;8.43;;;;;;;8.72;100.00;98266.47;5033048;28;20227;-75
2020/12/16 08:19:42;;;;;;;14.20;8.60;;;;;;;8.86;100.00;98260.34;5032537;28;20745;-73
2020/12/16 08:22:12;;;;;;;15.03;8.63;;;;;;;9.05;100.00;98261.59;5032788;28;20234;-75
2020/12/16 08:24:39;;;;;;;14.03;8.37;;;;;;;9.24;100.00;98266.38;5033581;28;20211;-74
2020/12/16 08:27:06;;;;;;;14.73;8.23;;;;;;;8.87;100.00;98261.16;5026565;28;20238;-75
2020/12/16 08:29:34;;;;;;;13.27;7.87;;;;;;;8.78;100.00;98256.94;5031464;28;20206;-74
2020/12/16 08:32:02;;;;;;;10.47;6.87;;;;;;;9.08;100.00;98267.38;5033167;28;20333;-73
2020/12/16 08:34:30;;;;;;;13.53;7.53;;;;;;;9.16;100.00;98264.63;5033296;28;20229;-73
2020/12/16 08:36:59;;;;;;;11.23;6.73;;;;;;;8.87;100.00;98266.47;5031950;28;20227;-74
2020/12/16 08:39:26;;;;;;;11.33;6.43;;;;;;;8.76;100.00;98264.28;5028349;28;20219;-73
2020/12/16 08:41:55;;;;;;;12.63;7.27;;;;;;;8.74;100.00;98260.97;5033329;28;20206;-73
2020/12/16 08:44:23;;;;;;;10.17;6.23;;;;;;;8.80;100.00;98257.59;5033707;28;20211;-74
2020/12/16 08:46:50;;;;;;;10.43;6.47;;;;;;;8.83;100.00;98257.22;5029544;28;20721;-73
2020/12/16 08:49:22;;;;;;;10.13;5.93;;;;;;;9.44;100.00;98259.44;5037660;28;20619;-76
2020/12/16 08:51:49;;;;;;;8.27;5.23;;;;;;;9.68;100.00;98261.72;5036755;28;20203;-77
2020/12/16 08:54:23;;;;;;;8.53;5.50;;;;;;;9.84;100.00;98272.19;5032623;28;20211;-76
2020/12/16 08:56:52;;;;;;;8.80;5.50;;;;;;;10.03;100.00;98269.69;5034507;28;20606;-75
2020/12/16 08:59:23;;;;;;;9.60;5.20;;;;;;;9.44;100.00;98267.44;5032798;28;20227;-78
2020/12/16 09:01:52;;;;;;;7.47;4.80;;;;;;;9.43;100.00;98261.25;5033897;28;20215;-77
2020/12/16 09:04:27;;;;;;;7.90;4.57;;;;;;;9.62;100.00;98265.16;5032966;28;20203;-74
2020/12/16 09:07:05;;;;;;;7.63;4.20;;;;;;;9.58;100.00;98267.38;5033615;28;20232;-75
2020/12/16 09:09:33;;;;;;;8.47;4.80;;;;;;;9.48;100.00;98272.19;5032463;28;20198;-74
2020/12/16 09:12:00;;;;;;;5.77;3.97;;;;;;;9.56;100.00;98266.75;5031364;28;20570;-74
2020/12/16 09:14:27;;;;;;;5.93;3.90;;;;;;;9.74;100.00;98269.00;5031853;28;20202;-75
2020/12/16 09:16:54;;;;;;;7.77;4.13;;;;;;;10.01;100.00;98274.41;5028753;28;20219;-71
2020/12/16 09:19:22;;;;;;;5.77;3.27;;;;;;;9.82;100.00;98276.84;5030220;28;20219;-75
2020/12/16 09:21:51;;;;;;;6.03;3.40;;;;;;;10.09;100.00;98271.63;5025956;28;20222;-75
2020/12/16 09:24:22;;;;;;;5.83;3.70;;;;;;;10.90;100.00;98274.50;5033369;28;20212;-75
2020/12/16 09:26:50;;;;;;;7.63;3.83;;;;;;;10.95;100.00;98280.09;5037322;28;20207;-75
2020/12/16 09:29:19;;;;;;;6.47;3.70;;;;;;;11.25;100.00;98277.97;5033028;28;20228;-73
2020/12/16 09:31:46;;;;;;;5.40;3.60;;;;;;;11.34;100.00;98276.78;5031685;28;20205;-76
2020/12/16 09:34:13;;;;;;;7.63;3.13;;;;;;;10.71;100.00;98274.38;5031581;28;20294;-75
2020/12/16 09:36:40;;;;;;;4.87;3.10;;;;;;;10.35;100.00;98274.50;5032000;28;20202;-75
2020/12/16 09:39:08;;;;;;;4.47;2.97;;;;;;;10.64;100.00;98277.00;5031470;28;20238;-75
2020/12/16 09:41:53;;;;;;;4.70;2.93;;;;;;;10.86;100.00;98267.91;5031269;28;20326;-75
2020/12/16 09:44:27;;;;;;;6.13;3.30;;;;;;;11.23;100.00;98277.34;5031311;28;20205;-75
2020/12/16 09:46:55;;;;;;;4.77;3.20;;;;;;;10.39;100.00;98275.78;5033062;28;20239;-78
2020/12/16 09:49:22;;;;;;;4.13;2.60;;;;;;;11.30;100.00;98271.03;5032093;28;20232;-81
2020/12/16 09:51:49;;;;;;;3.73;2.80;;;;;;;11.67;100.00;98266.25;5027487;28;20255;-76
2020/12/16 09:54:33;;;;;;;3.87;2.70;;;;;;;11.40;100.00;98266.13;5029954;28;20218;-78
2020/12/16 09:57:09;;;;;;;3.80;2.43;;;;;;;11.54;100.00;98261.66;5029828;28;20226;-76
2020/12/16 09:59:36;;;;;;;4.77;2.97;;;;;;;11.40;100.00;98262.63;5036450;28;20233;-77
2020/12/16 10:02:04;;;;;;;4.83;3.43;;;;;;;10.66;100.00;98263.47;5037484;28;20208;-77
2020/12/16 10:04:31;;;;;;;4.00;2.33;;;;;;;10.75;100.00;98263.13;5044103;28;20231;-78
2020/12/16 10:06:58;;;;;;;5.80;3.43;;;;;;;10.40;100.00;98260.63;5035425;28;20227;-77
2020/12/16 10:09:25;;;;;;;5.03;3.07;;;;;;;11.03;100.00;98253.22;5031284;28;20295;-78
2020/12/16 10:11:52;;;;;;;5.60;3.20;;;;;;;11.14;100.00;98258.00;5031921;28;20190;-77
2020/12/16 10:14:19;;;;;;;5.30;3.37;;;;;;;10.64;100.00;98263.66;5032033;28;20206;-78
2020/12/16 10:16:48;;;;;;;4.50;3.30;;;;;;;10.86;100.00;98261.75;5030288;28;20209;-75
2020/12/16 10:19:16;;;;;;;4.63;3.43;;;;;;;10.40;100.00;98257.94;5030243;28;20232;-78
2020/12/16 10:21:45;;;;;;;9.83;4.67;;;;;;;10.93;100.00;98259.13;5030116;28;20204;-73
2020/12/16 10:24:12;;;;;;;6.87;3.83;;;;;;;10.92;100.00;98255.63;5029179;28;20209;-74
2020/12/16 10:26:39;;;;;;;6.83;4.23;;;;;;;10.93;100.00;98253.78;5028410;28;20196;-77
2020/12/16 10:29:07;;;;;;;8.30;4.30;;;;;;;11.25;100.00;98254.75;5028541;28;20201;-76
2020/12/16 10:31:33;;;;;;;6.33;4.27;;;;;;;11.14;100.00;98249.16;5031636;28;20208;-77
2020/12/16 10:34:00;;;;;;;6.33;4.70;;;;;;;11.31;100.00;98243.28;5031982;28;20220;-76
2020/12/16 10:36:29;;;;;;;7.20;4.63;;;;;;;11.21;100.00;98245.50;5031023;28;20230;-78
2020/12/16 10:38:57;;;;;;;7.33;3.60;;;;;;;11.43;100.00;98231.00;5044664;28;20224;-76
2020/12/16 10:41:24;;;;;;;5.93;4.13;;;;;;;11.26;100.00;98237.69;5042898;28;20214;-76
2020/12/16 10:43:52;;;;;;;6.03;3.87;;;;;;;11.44;100.00;98238.00;5042612;28;20209;-77
2020/12/16 10:46:20;;;;;;;6.00;4.27;;;;;;;11.50;100.00;98242.53;5031612;28;20225;-75
2020/12/16 10:48:46;;;;;;;4.67;3.53;;;;;;;11.78;100.00;98232.53;5030007;28;20272;-78
2020/12/16 10:51:13;;;;;;;6.77;3.90;;;;;;;11.48;100.00;98231.22;5031186;28;20202;-77
2020/12/16 10:53:40;;;;;;;6.50;3.93;;;;;;;12.02;100.00;98226.63;5025433;28;20239;-78
2020/12/16 10:56:07;;;;;;;6.43;4.00;;;;;;;11.99;100.00;98231.56;5022652;28;20216;-76
2020/12/16 10:58:35;;;;;;;7.47;4.30;;;;;;;11.73;100.00;98226.97;5030307;28;20229;-75
2020/12/16 11:01:02;;;;;;;11.03;4.10;;;;;;;11.95;100.00;98229.50;5030112;28;20233;-76
2020/12/16 11:03:29;;;;;;;7.10;4.23;;;;;;;12.13;100.00;98235.06;5032577;28;20260;-74
2020/12/16 11:05:55;;;;;;;6.07;3.97;;;;;;;12.16;100.00;98224.75;5032710;28;20216;-78
2020/12/16 11:08:22;;;;;;;6.63;4.13;;;;;;;11.54;100.00;98227.75;5032735;28;20578;-80
2020/12/16 11:10:50;;;;;;;6.87;4.30;;;;;;;11.53;100.00;98222.59;5036470;28;20564;-82
2020/12/16 11:13:17;;;;;;;7.17;3.97;;;;;;;12.05;100.00;98216.56;5032326;28;20834;-80
2020/12/16 11:15:44;;;;;;;8.60;3.97;;;;;;;12.13;100.00;98220.66;5033189;28;20236;-80
2020/12/16 11:18:11;;;;;;;7.73;3.80;;;;;;;12.49;100.00;98210.34;5034325;28;20261;-80
2020/12/16 11:20:38;;;;;;;7.13;3.87;;;;;;;12.37;100.00;98213.88;5034585;28;20287;-78
2020/12/16 11:23:05;;;;;;;5.63;3.87;;;;;;;12.31;100.00;98212.00;5034967;28;20228;-77
2020/12/16 11:25:32;;;;;;;7.07;4.37;;;;;;;12.46;100.00;98225.19;5034847;28;20212;-78
2020/12/16 11:27:59;;;;;;;6.87;3.83;;;;;;;12.65;100.00;98217.13;5039752;28;20234;-79
2020/12/16 11:30:25;;;;;;;6.37;4.27;;;;;;;12.60;100.00;98206.22;5040287;28;20207;-82